Time;durP1;ratioP1;P1;durP2;ratioP2;P2;SDS_P1;SDS_P2;PMS_P1;PMS_P2;Temp;Humidity;BMP_temperature;BMP_pressure;BME280_temperature;BME280_humidity;BME280_pressure;Samples;Min_cycle;Max_cycle;Signal;HPM_P1;HPM_P2
2021/04/07 00:00:36;;;;;;;15.77;11.23;;;2.90;99.90;;;;;;5047668;28;20739;-43
2021/04/07 00:03:03;;;;;;;17.73;11.77;;;2.90;99.90;;;;;;5048706;28;20261;-42
2021/04/07 00:05:32;;;;;;;18.53;12.87;;;2.90;99.90;;;;;;5053742;28;20466;-43
2021/04/07 00:07:58;;;;;;;17.03;11.13;;;2.80;99.90;;;;;;5058028;28;20540;-44
2021/04/07 00:10:30;;;;;;;16.20;11.50;;;3.00;99.90;;;;;;5055156;28;20428;-41
2021/04/07 00:12:56;;;;;;;15.97;11.50;;;2.90;99.90;;;;;;5047790;28;20421;-45
2021/04/07 00:15:23;;;;;;;15.40;10.70;;;2.90;99.90;;;;;;5060741;28;20398;-43
2021/04/07 00:17:50;;;;;;;17.37;10.90;;;2.90;99.90;;;;;;5048111;28;20442;-42
2021/04/07 00:20:19;;;;;;;21.70;10.87;;;2.70;99.90;;;;;;5047114;28;20432;-41
2021/04/07 00:22:45;;;;;;;16.90;11.70;;;3.00;99.90;;;;;;5049440;28;20398;-41
2021/04/07 00:25:12;;;;;;;15.23;11.30;;;2.80;99.90;;;;;;5048617;28;20435;-44
2021/04/07 00:27:42;;;;;;;15.70;11.47;;;2.90;99.90;;;;;;5047565;28;20496;-44
2021/04/07 00:30:10;;;;;;;15.00;11.30;;;2.90;99.90;;;;;;5055882;28;20788;-41
2021/04/07 00:32:36;;;;;;;16.73;11.30;;;2.60;99.90;;;;;;5047613;28;20435;-42
2021/04/07 00:35:04;;;;;;;18.33;11.73;;;2.60;99.90;;;;;;5047408;28;20521;-42
2021/04/07 00:37:30;;;;;;;16.20;10.53;;;2.70;99.90;;;;;;5051114;28;20488;-41
2021/04/07 00:39:56;;;;;;;14.17;10.60;;;2.70;99.90;;;;;;5064781;28;20746;-45
2021/04/07 00:42:22;;;;;;;15.60;10.20;;;2.70;99.90;;;;;;5050602;28;20201;-43
2021/04/07 00:44:48;;;;;;;12.87;9.17;;;2.80;99.90;;;;;;5051462;28;20331;-46
2021/04/07 00:47:19;;;;;;;14.30;9.93;;;2.70;99.90;;;;;;5050404;28;20412;-45
2021/04/07 00:49:45;;;;;;;12.10;9.50;;;2.70;99.90;;;;;;5065325;28;20435;-42
2021/04/07 00:52:11;;;;;;;11.27;9.00;;;2.70;99.90;;;;;;5056157;28;20523;-42
2021/04/07 00:54:37;;;;;;;14.33;10.10;;;2.70;99.90;;;;;;5060493;28;20194;-40
2021/04/07 00:57:03;;;;;;;13.13;9.90;;;2.80;99.90;;;;;;5047241;28;20477;-46
2021/04/07 00:59:29;;;;;;;13.03;8.70;;;2.70;99.90;;;;;;5055702;28;20394;-45
2021/04/07 01:01:56;;;;;;;11.00;8.20;;;2.40;99.90;;;;;;5049750;28;20478;-43
2021/04/07 01:04:23;;;;;;;13.87;9.33;;;2.40;99.90;;;;;;5067089;28;20415;-42
2021/04/07 01:06:50;;;;;;;11.63;8.60;;;2.70;99.90;;;;;;5062038;28;20448;-41
2021/04/07 01:09:16;;;;;;;10.40;7.50;;;2.80;99.90;;;;;;5057100;28;20422;-48
2021/04/07 01:11:42;;;;;;;14.10;8.10;;;2.70;99.90;;;;;;5047460;28;20474;-42
2021/04/07 01:14:07;;;;;;;10.60;8.30;;;2.70;99.90;;;;;;5051386;28;20199;-41
2021/04/07 01:16:33;;;;;;;11.47;8.40;;;2.50;99.90;;;;;;5049344;28;20208;-43
2021/04/07 01:18:59;;;;;;;10.30;8.60;;;2.90;99.90;;;;;;5046308;28;20186;-42
2021/04/07 01:21:24;;;;;;;12.60;8.50;;;2.80;99.90;;;;;;5047990;28;20181;-42
2021/04/07 01:23:50;;;;;;;10.73;8.40;;;2.60;99.90;;;;;;5063456;28;20215;-42
2021/04/07 01:26:17;;;;;;;13.03;9.00;;;2.70;99.90;;;;;;5060888;28;20546;-41
2021/04/07 01:28:43;;;;;;;13.30;9.73;;;2.80;99.90;;;;;;5047139;28;20232;-46
2021/04/07 01:31:09;;;;;;;13.50;9.50;;;2.50;99.90;;;;;;5048334;28;20459;-41
2021/04/07 01:33:36;;;;;;;13.40;10.33;;;2.80;99.90;;;;;;5046497;28;20696;-44
2021/04/07 01:36:02;;;;;;;13.20;9.73;;;2.70;99.90;;;;;;5047803;28;20786;-44
2021/04/07 01:38:29;;;;;;;23.93;11.57;;;2.50;99.90;;;;;;5059683;28;20611;-43
2021/04/07 01:40:56;;;;;;;15.43;10.67;;;2.60;99.90;;;;;;5053290;28;20754;-42
2021/04/07 01:43:24;;;;;;;18.70;11.93;;;2.80;99.90;;;;;;5046432;28;20923;-43
2021/04/07 01:45:50;;;;;;;16.83;11.10;;;2.60;99.90;;;;;;5058149;28;20535;-41
2021/04/07 01:48:17;;;;;;;24.00;11.50;;;2.80;99.90;;;;;;5057884;28;20939;-42
2021/04/07 01:50:47;;;;;;;17.67;10.77;;;2.60;99.90;;;;;;5063784;28;20519;-44
2021/04/07 01:53:13;;;;;;;15.67;11.27;;;2.60;99.90;;;;;;5052241;28;20410;-41
2021/04/07 01:55:40;;;;;;;14.50;11.50;;;2.50;99.90;;;;;;5055883;28;20395;-42
2021/04/07 01:58:06;;;;;;;16.43;11.47;;;2.80;99.90;;;;;;5046139;28;21243;-42
2021/04/07 02:00:33;;;;;;;18.40;11.30;;;2.60;99.90;;;;;;5052399;28;20407;-42
2021/04/07 02:03:03;;;;;;;15.33;10.90;;;2.70;99.90;;;;;;5045838;28;21136;-41
2021/04/07 02:05:30;;;;;;;17.00;12.70;;;2.60;99.90;;;;;;5045888;28;20407;-41
2021/04/07 02:07:56;;;;;;;16.50;10.50;;;2.60;99.90;;;;;;5055840;28;21061;-41
2021/04/07 02:10:21;;;;;;;14.97;11.40;;;2.60;99.90;;;;;;5056719;28;20786;-42
2021/04/07 02:12:55;;;;;;;16.33;11.50;;;2.50;99.90;;;;;;5045182;28;20403;-42
2021/04/07 02:15:22;;;;;;;14.67;10.70;;;2.50;99.90;;;;;;5047101;28;20197;-43
2021/04/07 02:17:48;;;;;;;18.13;10.97;;;2.40;99.90;;;;;;5045433;28;20439;-44
2021/04/07 02:20:15;;;;;;;17.00;10.47;;;2.40;99.90;;;;;;5045258;28;20697;-41
2021/04/07 02:22:41;;;;;;;13.63;10.10;;;2.50;99.90;;;;;;5053576;28;20181;-42
2021/04/07 02:25:09;;;;;;;14.77;10.40;;;2.60;99.90;;;;;;5056978;28;20989;-43
2021/04/07 02:27:36;;;;;;;19.33;10.13;;;2.40;99.90;;;;;;5045781;28;20204;-43
2021/04/07 02:30:06;;;;;;;15.10;8.70;;;2.40;99.90;;;;;;5050212;28;20426;-45
2021/04/07 02:32:32;;;;;;;20.17;9.33;;;2.40;99.90;;;;;;5050067;28;20518;-47
2021/04/07 02:34:58;;;;;;;13.53;9.00;;;2.40;99.90;;;;;;5045562;28;20509;-42
2021/04/07 02:37:23;;;;;;;13.67;10.63;;;2.50;99.90;;;;;;5051413;28;20451;-43
2021/04/07 02:39:49;;;;;;;15.23;8.70;;;2.60;99.90;;;;;;5056325;28;20216;-43
2021/04/07 02:42:17;;;;;;;14.03;9.40;;;2.60;99.90;;;;;;5059940;28;20435;-41
2021/04/07 02:44:43;;;;;;;12.20;9.20;;;2.60;99.90;;;;;;5045980;28;20284;-41
2021/04/07 02:47:09;;;;;;;12.27;8.83;;;2.60;99.90;;;;;;5047014;28;20864;-41
2021/04/07 02:49:35;;;;;;;12.40;9.50;;;2.50;99.90;;;;;;5044973;28;20777;-41
2021/04/07 02:52:01;;;;;;;14.97;9.80;;;2.50;99.90;;;;;;5046182;28;20656;-48
2021/04/07 02:54:27;;;;;;;16.87;9.90;;;2.40;99.90;;;;;;5051661;28;20189;-42
2021/04/07 02:56:52;;;;;;;15.57;10.10;;;2.40;99.90;;;;;;5050324;28;20471;-41
2021/04/07 02:59:18;;;;;;;17.03;10.97;;;2.60;99.90;;;;;;5045145;28;20189;-41
2021/04/07 03:01:44;;;;;;;13.27;9.90;;;2.40;99.90;;;;;;5056272;28;20485;-46
2021/04/07 03:04:10;;;;;;;16.10;10.30;;;2.50;99.90;;;;;;5045806;28;20205;-42
2021/04/07 03:06:36;;;;;;;16.43;11.50;;;2.50;99.90;;;;;;5045385;28;20395;-42
2021/04/07 03:09:03;;;;;;;17.20;10.67;;;2.60;99.90;;;;;;5047422;28;20439;-43
2021/04/07 03:11:29;;;;;;;13.00;10.20;;;2.50;99.90;;;;;;5047987;28;21015;-42
2021/04/07 03:13:55;;;;;;;16.57;10.10;;;2.30;99.90;;;;;;5044122;28;20416;-44
2021/04/07 03:16:20;;;;;;;17.97;11.57;;;2.60;99.90;;;;;;5052293;28;20178;-45
2021/04/07 03:18:46;;;;;;;15.53;10.83;;;2.40;99.90;;;;;;5045400;28;20533;-41
2021/04/07 03:21:12;;;;;;;15.17;10.67;;;2.40;99.90;;;;;;5044445;28;20200;-41
2021/04/07 03:23:38;;;;;;;14.20;11.10;;;2.50;99.90;;;;;;5048877;28;20190;-43
2021/04/07 03:26:04;;;;;;;18.10;11.57;;;2.30;99.90;;;;;;5061627;28;20661;-44
2021/04/07 03:28:29;;;;;;;19.20;12.83;;;2.50;99.90;;;;;;5060158;28;21025;-41
2021/04/07 03:30:55;;;;;;;16.80;11.53;;;2.40;99.90;;;;;;5051055;28;20296;-40
2021/04/07 03:33:31;;;;;;;17.73;11.83;;;2.60;99.90;;;;;;5048723;28;20418;-47
2021/04/07 03:35:58;;;;;;;18.30;13.07;;;2.60;99.90;;;;;;5047549;28;20413;-44
2021/04/07 03:38:25;;;;;;;25.60;15.53;;;2.50;99.90;;;;;;5052074;28;21228;-42
2021/04/07 03:40:51;;;;;;;18.60;13.37;;;2.40;99.90;;;;;;5061829;28;20398;-41
2021/04/07 03:43:19;;;;;;;18.20;13.83;;;2.50;99.90;;;;;;5050405;28;20456;-41
2021/04/07 03:45:50;;;;;;;21.00;13.87;;;2.50;99.90;;;;;;5050964;28;20439;-45
2021/04/07 03:48:18;;;;;;;19.10;13.90;;;2.70;99.90;;;;;;5055831;28;20414;-42
2021/04/07 03:50:45;;;;;;;19.93;14.17;;;2.60;99.90;;;;;;5047701;28;20826;-44
2021/04/07 03:53:11;;;;;;;23.37;14.40;;;2.50;99.90;;;;;;5054235;28;20410;-41
2021/04/07 03:55:39;;;;;;;19.10;14.40;;;2.70;99.90;;;;;;5056365;28;20505;-42
2021/04/07 03:58:05;;;;;;;18.90;13.57;;;2.50;99.90;;;;;;5053084;28;20798;-41
2021/04/07 04:00:31;;;;;;;17.80;13.47;;;2.30;99.90;;;;;;5047689;28;20478;-40
2021/04/07 04:02:57;;;;;;;18.50;13.03;;;2.40;99.90;;;;;;5056721;28;20424;-41
2021/04/07 04:05:23;;;;;;;19.30;13.40;;;2.60;99.90;;;;;;5048092;28;20395;-43
2021/04/07 04:07:48;;;;;;;21.00;12.93;;;2.60;99.90;;;;;;5047764;28;20440;-41
2021/04/07 04:10:14;;;;;;;19.30;11.70;;;2.50;99.90;;;;;;5056291;28;20406;-42
2021/04/07 04:12:40;;;;;;;18.63;12.73;;;2.40;99.90;;;;;;5064744;28;20497;-41
2021/04/07 04:15:11;;;;;;;16.13;11.90;;;2.60;99.90;;;;;;5050493;28;20431;-43
2021/04/07 04:17:41;;;;;;;16.27;11.00;;;2.60;99.90;;;;;;5053411;28;20742;-47
2021/04/07 04:20:08;;;;;;;14.30;11.47;;;2.40;99.90;;;;;;5047102;28;20390;-42
2021/04/07 04:22:34;;;;;;;16.03;12.33;;;2.70;99.90;;;;;;5047812;28;20403;-41
2021/04/07 04:25:00;;;;;;;15.00;11.33;;;2.60;99.90;;;;;;5062365;28;20876;-41
2021/04/07 04:27:25;;;;;;;20.33;12.80;;;2.60;99.90;;;;;;5062578;28;20430;-43
2021/04/07 04:29:51;;;;;;;20.30;14.13;;;2.70;99.90;;;;;;5048215;28;20735;-43
2021/04/07 04:32:17;;;;;;;19.57;14.70;;;2.50;99.90;;;;;;5058946;28;20232;-40
2021/04/07 04:34:43;;;;;;;22.97;16.70;;;2.40;99.90;;;;;;5048264;28;20205;-42
2021/04/07 04:37:09;;;;;;;23.47;15.50;;;2.50;99.90;;;;;;5047983;28;20218;-45
2021/04/07 04:39:35;;;;;;;23.17;16.20;;;2.50;99.90;;;;;;5049865;28;20442;-41
2021/04/07 04:42:01;;;;;;;23.53;16.43;;;2.40;99.90;;;;;;5057257;28;20399;-41
2021/04/07 04:44:27;;;;;;;22.27;16.33;;;2.50;99.90;;;;;;5049161;28;20395;-41
2021/04/07 04:46:53;;;;;;;22.90;16.63;;;2.50;99.90;;;;;;5054733;28;20413;-41
2021/04/07 04:49:18;;;;;;;23.00;15.50;;;2.70;99.90;;;;;;5047112;28;20213;-41
2021/04/07 04:51:44;;;;;;;23.90;15.70;;;2.70;99.90;;;;;;5047012;28;20399;-42
2021/04/07 04:54:10;;;;;;;23.23;15.77;;;2.80;99.90;;;;;;5046156;28;20348;-43
2021/04/07 04:56:39;;;;;;;23.57;15.60;;;2.70;99.90;;;;;;5054987;28;20212;-43
2021/04/07 04:59:05;;;;;;;25.13;15.90;;;2.60;99.90;;;;;;5058081;28;20622;-42
2021/04/07 05:01:31;;;;;;;21.23;14.93;;;2.30;99.90;;;;;;5056320;28;20427;-42
2021/04/07 05:03:57;;;;;;;26.90;18.00;;;2.50;99.90;;;;;;5068022;28;20397;-41
2021/04/07 05:06:23;;;;;;;23.00;15.00;;;2.40;99.90;;;;;;5059918;28;20393;-44
2021/04/07 05:08:49;;;;;;;22.47;14.73;;;2.50;99.90;;;;;;5051973;28;20421;-48
2021/04/07 05:11:15;;;;;;;22.33;14.70;;;2.50;99.90;;;;;;5057529;28;20181;-42
2021/04/07 05:13:41;;;;;;;23.50;15.13;;;2.60;99.90;;;;;;5050873;28;20439;-43
2021/04/07 05:16:06;;;;;;;20.53;13.90;;;2.50;99.90;;;;;;5045613;28;20189;-41
2021/04/07 05:18:32;;;;;;;23.07;13.20;;;2.20;99.90;;;;;;5058801;28;20446;-42
2021/04/07 05:20:59;;;;;;;21.70;14.90;;;2.30;99.90;;;;;;5046259;28;20636;-42
2021/04/07 05:23:25;;;;;;;24.83;16.83;;;2.40;99.90;;;;;;5045777;28;20468;-42
2021/04/07 05:25:50;;;;;;;20.73;14.60;;;2.50;99.90;;;;;;5055068;28;20407;-44
2021/04/07 05:28:16;;;;;;;22.47;15.23;;;2.40;99.90;;;;;;5051938;28;20405;-41
2021/04/07 05:33:38;;;;;;;21.70;13.90;;;2.50;99.90;;;;;;5059396;28;20240;-42
2021/04/07 05:36:06;;;;;;;20.20;13.93;;;2.20;99.90;;;;;;5050012;28;20424;-41
2021/04/07 05:38:33;;;;;;;20.40;13.63;;;2.50;99.90;;;;;;5044694;28;20475;-43
2021/04/07 05:41:00;;;;;;;19.30;13.17;;;2.20;99.90;;;;;;5059156;28;20890;-41
2021/04/07 05:43:28;;;;;;;15.87;11.10;;;2.40;99.90;;;;;;5065302;28;20394;-42
2021/04/07 05:45:54;;;;;;;17.27;9.67;;;2.30;99.90;;;;;;5048648;28;20395;-42
2021/04/07 05:48:19;;;;;;;12.70;8.77;;;2.20;99.90;;;;;;5049188;28;20424;-44
2021/04/07 05:50:47;;;;;;;14.07;9.50;;;2.10;99.90;;;;;;5043945;28;20326;-42
2021/04/07 05:53:13;;;;;;;11.77;8.67;;;2.10;99.90;;;;;;5046158;28;20399;-41
2021/04/07 05:55:54;;;;;;;11.57;8.30;;;2.20;99.90;;;;;;5053853;28;20432;-42
2021/04/07 05:58:21;;;;;;;13.20;8.20;;;2.20;99.90;;;;;;5058367;28;20437;-42
2021/04/07 06:00:48;;;;;;;10.93;7.70;;;2.40;99.90;;;;;;5044972;28;20407;-41
2021/04/07 06:03:14;;;;;;;9.57;7.03;;;2.50;99.90;;;;;;5057591;28;20746;-42
2021/04/07 06:05:41;;;;;;;11.90;7.60;;;2.30;99.90;;;;;;5045880;28;20497;-42
2021/04/07 06:08:08;;;;;;;11.00;7.50;;;2.50;99.90;;;;;;5046241;28;20467;-41
2021/04/07 06:10:37;;;;;;;10.37;8.43;;;2.30;99.90;;;;;;5046230;28;20831;-44
2021/04/07 06:13:03;;;;;;;12.53;7.87;;;2.20;99.90;;;;;;5058853;28;20921;-42
2021/04/07 06:15:29;;;;;;;10.73;7.80;;;2.20;99.90;;;;;;5044369;28;20440;-46
2021/04/07 06:18:02;;;;;;;14.90;9.43;;;2.30;99.90;;;;;;5052881;28;20251;-41
2021/04/07 06:20:31;;;;;;;13.77;8.80;;;2.40;99.90;;;;;;5060511;28;20394;-41
2021/04/07 06:22:57;;;;;;;13.20;9.80;;;2.50;99.90;;;;;;5054728;28;20395;-42
2021/04/07 06:25:24;;;;;;;13.73;9.47;;;2.60;99.90;;;;;;5053525;28;20410;-42
2021/04/07 06:27:56;;;;;;;12.37;9.33;;;2.50;99.90;;;;;;5061170;28;20797;-41
2021/04/07 06:30:42;;;;;;;12.87;9.30;;;2.40;99.90;;;;;;5052133;28;20413;-43
2021/04/07 06:33:15;;;;;;;13.77;10.00;;;2.50;99.90;;;;;;5056180;28;20440;-43
2021/04/07 06:35:44;;;;;;;12.13;9.40;;;2.40;99.90;;;;;;5055676;28;20405;-46
2021/04/07 06:38:10;;;;;;;13.37;9.63;;;2.50;99.90;;;;;;5065201;28;20458;-42
2021/04/07 06:40:36;;;;;;;11.97;8.37;;;2.40;99.90;;;;;;5049123;28;20436;-42
2021/04/07 06:43:03;;;;;;;11.10;8.60;;;2.30;99.90;;;;;;5049776;28;20264;-41
2021/04/07 06:45:31;;;;;;;10.30;8.53;;;2.60;99.90;;;;;;5044816;28;20268;-44
2021/04/07 06:47:57;;;;;;;11.33;7.67;;;2.50;99.90;;;;;;5053539;28;20489;-43
2021/04/07 06:50:24;;;;;;;10.20;8.23;;;2.40;99.90;;;;;;5053525;28;20937;-44
2021/04/07 06:52:52;;;;;;;10.13;7.07;;;2.70;99.90;;;;;;5054032;28;20204;-41
2021/04/07 06:55:18;;;;;;;8.67;6.80;;;2.50;99.90;;;;;;5059316;28;20423;-41
2021/04/07 06:57:45;;;;;;;8.53;6.53;;;2.60;99.90;;;;;;5053712;28;20474;-44
2021/04/07 07:00:12;;;;;;;14.20;7.70;;;2.50;99.90;;;;;;5066185;28;20660;-44
2021/04/07 07:02:38;;;;;;;8.30;6.50;;;2.50;99.90;;;;;;5050150;28;20390;-42
2021/04/07 07:05:04;;;;;;;9.10;7.20;;;2.70;99.90;;;;;;5052897;28;20434;-43
2021/04/07 07:07:30;;;;;;;9.30;6.73;;;2.70;99.90;;;;;;5048696;28;20185;-41
2021/04/07 07:09:56;;;;;;;11.77;8.13;;;2.50;99.90;;;;;;5050372;28;20749;-46
2021/04/07 07:12:25;;;;;;;7.70;5.97;;;2.60;99.90;;;;;;5065888;28;20208;-41
2021/04/07 07:14:51;;;;;;;7.73;6.23;;;2.80;99.90;;;;;;5062123;28;20811;-41
2021/04/07 07:17:28;;;;;;;10.00;7.90;;;2.60;99.90;;;;;;5048997;28;20442;-41
2021/04/07 07:19:54;;;;;;;9.97;7.30;;;2.60;99.90;;;;;;5048803;28;20405;-45
2021/04/07 07:22:25;;;;;;;9.20;7.67;;;2.50;99.90;;;;;;5048802;28;21084;-41
2021/04/07 07:25:00;;;;;;;8.33;7.00;;;2.80;99.90;;;;;;5052558;28;20181;-44
2021/04/07 07:27:40;;;;;;;9.30;7.50;;;2.70;99.90;;;;;;5053789;28;20443;-42
2021/04/07 07:30:08;;;;;;;11.93;8.60;;;2.80;99.90;;;;;;5056114;28;20427;-41
2021/04/07 07:32:36;;;;;;;11.23;8.97;;;2.80;99.90;;;;;;5058951;28;20487;-40
2021/04/07 07:35:11;;;;;;;13.20;9.87;;;2.70;99.90;;;;;;5057984;28;20427;-42
2021/04/07 07:37:37;;;;;;;11.97;10.00;;;2.90;99.90;;;;;;5050999;28;20469;-40
2021/04/07 07:40:07;;;;;;;13.50;9.43;;;2.80;99.90;;;;;;5048060;28;20508;-42
2021/04/07 07:42:33;;;;;;;11.57;8.63;;;2.90;99.90;;;;;;5059268;28;20444;-41
2021/04/07 07:44:59;;;;;;;12.50;8.80;;;2.80;99.90;;;;;;5057493;28;20407;-40
2021/04/07 07:47:36;;;;;;;11.93;9.13;;;2.70;99.90;;;;;;5052185;28;20427;-43
2021/04/07 07:50:05;;;;;;;11.10;9.23;;;2.80;99.90;;;;;;5055469;28;20402;-44
2021/04/07 07:52:38;;;;;;;10.47;8.33;;;2.80;99.90;;;;;;5048033;28;20455;-42
2021/04/07 07:55:18;;;;;;;9.03;8.03;;;2.90;99.90;;;;;;5046307;28;20530;-41
2021/04/07 07:57:57;;;;;;;9.20;8.30;;;2.70;99.90;;;;;;5067730;28;21029;-41
2021/04/07 08:00:24;;;;;;;9.40;8.43;;;2.60;99.90;;;;;;5059581;28;20436;-42
2021/04/07 08:02:51;;;;;;;11.70;8.80;;;2.90;99.90;;;;;;5048013;28;20531;-40
2021/04/07 08:05:17;;;;;;;8.47;7.40;;;2.70;99.90;;;;;;5048893;28;20423;-41
2021/04/07 08:07:43;;;;;;;10.10;8.10;;;2.80;99.90;;;;;;5047620;28;20431;-41
2021/04/07 08:10:14;;;;;;;9.53;8.53;;;3.10;99.90;;;;;;5045948;28;20498;-41
2021/04/07 08:12:41;;;;;;;8.33;7.50;;;2.80;99.90;;;;;;5057884;28;20410;-43
2021/04/07 08:15:09;;;;;;;11.47;9.70;;;2.90;99.90;;;;;;5060084;28;20390;-40
2021/04/07 08:17:36;;;;;;;14.17;10.33;;;3.00;99.90;;;;;;5055823;28;20430;-45
2021/04/07 08:20:04;;;;;;;11.87;9.30;;;3.00;99.90;;;;;;5044385;28;20751;-41
2021/04/07 08:22:33;;;;;;;11.97;9.80;;;2.80;99.90;;;;;;5044637;28;20456;-41
2021/04/07 08:25:01;;;;;;;12.33;9.60;;;2.90;99.90;;;;;;5046348;28;20717;-45
2021/04/07 08:27:28;;;;;;;11.90;10.23;;;3.00;99.90;;;;;;5059734;28;20431;-44
2021/04/07 08:29:54;;;;;;;14.00;10.93;;;2.80;99.90;;;;;;5060451;28;20474;-41
2021/04/07 08:32:21;;;;;;;12.30;11.10;;;2.90;99.90;;;;;;5054936;28;20449;-40
2021/04/07 08:34:48;;;;;;;13.40;11.17;;;3.00;99.90;;;;;;5047742;28;20425;-41
2021/04/07 08:37:28;;;;;;;12.37;11.07;;;2.80;99.90;;;;;;5046129;28;20807;-41
2021/04/07 08:40:14;;;;;;;13.90;11.83;;;3.20;99.90;;;;;;5046285;28;20416;-42
2021/04/07 08:42:41;;;;;;;12.23;10.80;;;3.30;99.90;;;;;;5047835;28;20436;-44
2021/04/07 08:45:12;;;;;;;13.23;10.03;;;3.20;99.90;;;;;;5053825;28;20385;-41
2021/04/07 08:47:49;;;;;;;11.17;9.53;;;3.60;99.90;;;;;;5028631;28;20596;-42
2021/04/07 08:50:16;;;;;;;10.80;8.97;;;3.40;99.90;;;;;;5051912;28;20402;-41
2021/04/07 08:52:47;;;;;;;11.10;8.63;;;3.30;99.90;;;;;;5046842;28;20424;-41
2021/04/07 08:55:19;;;;;;;11.73;9.83;;;3.20;99.90;;;;;;5045325;28;20420;-41
2021/04/07 08:58:04;;;;;;;12.67;10.80;;;3.30;99.90;;;;;;5049950;28;20499;-41
2021/04/07 09:00:35;;;;;;;13.07;10.30;;;3.10;99.90;;;;;;5058834;28;20411;-42
2021/04/07 09:03:15;;;;;;;14.93;11.57;;;3.40;99.90;;;;;;5053555;28;20416;-43
2021/04/07 09:05:51;;;;;;;14.70;11.87;;;3.30;99.90;;;;;;5046407;28;20420;-41
2021/04/07 09:08:27;;;;;;;15.90;11.97;;;3.20;99.90;;;;;;5047158;28;20431;-41
2021/04/07 09:10:54;;;;;;;12.07;10.67;;;3.40;99.90;;;;;;5046308;28;20550;-46
2021/04/07 09:13:21;;;;;;;16.43;11.87;;;3.40;99.90;;;;;;5051649;28;20998;-43
2021/04/07 09:16:01;;;;;;;15.40;12.20;;;3.40;99.90;;;;;;5061729;28;20476;-41
2021/04/07 09:18:35;;;;;;;13.63;11.40;;;3.40;99.90;;;;;;5046817;28;20664;-43
2021/04/07 09:21:02;;;;;;;18.33;13.80;;;3.70;99.90;;;;;;5055949;28;20397;-43
2021/04/07 09:23:31;;;;;;;17.93;12.63;;;3.40;99.90;;;;;;5046378;28;20423;-46
2021/04/07 09:26:22;;;;;;;17.23;13.47;;;3.50;99.90;;;;;;5046426;28;20872;-44
2021/04/07 09:28:52;;;;;;;14.50;12.00;;;3.80;99.90;;;;;;5053469;28;20418;-41
2021/04/07 09:31:19;;;;;;;15.60;12.80;;;3.70;99.90;;;;;;5058369;28;20983;-42
2021/04/07 09:33:53;;;;;;;18.37;13.03;;;3.80;99.90;;;;;;5054337;28;20854;-41
2021/04/07 09:36:31;;;;;;;16.13;12.73;;;3.90;99.90;;;;;;5050585;28;20403;-45
2021/04/07 09:38:59;;;;;;;18.60;14.17;;;4.10;99.90;;;;;;5045664;28;20474;-44
2021/04/07 09:41:30;;;;;;;17.13;13.20;;;4.20;99.90;;;;;;5045171;28;20523;-42
2021/04/07 09:43:57;;;;;;;18.63;14.43;;;4.20;99.90;;;;;;5049716;28;20468;-41
2021/04/07 09:46:23;;;;;;;20.33;14.83;;;4.20;99.90;;;;;;5055474;28;20590;-40
2021/04/07 09:48:59;;;;;;;21.17;15.80;;;4.20;99.90;;;;;;5046271;28;20432;-43
2021/04/07 09:51:31;;;;;;;19.73;15.20;;;4.20;99.90;;;;;;5055249;28;20422;-44
2021/04/07 09:54:17;;;;;;;18.57;14.40;;;4.10;99.90;;;;;;5047698;28;20443;-45
2021/04/07 09:56:59;;;;;;;20.90;14.67;;;4.00;99.90;;;;;;5046335;28;20924;-43
2021/04/07 09:59:45;;;;;;;20.50;14.70;;;3.90;99.90;;;;;;5050551;28;20420;-42
2021/04/07 10:02:12;;;;;;;19.10;15.10;;;4.20;99.90;;;;;;5050991;28;20413;-41
2021/04/07 10:04:43;;;;;;;19.37;15.30;;;4.20;99.90;;;;;;5046076;28;20764;-43
2021/04/07 10:07:09;;;;;;;19.17;13.20;;;4.20;99.90;;;;;;5046651;28;20823;-44
2021/04/07 10:09:35;;;;;;;17.93;14.00;;;4.10;99.90;;;;;;5045558;28;20518;-40
2021/04/07 10:12:01;;;;;;;16.70;13.90;;;4.00;99.90;;;;;;5045222;28;21005;-45
2021/04/07 10:14:27;;;;;;;17.17;13.37;;;3.90;99.90;;;;;;5055842;28;20283;-42
2021/04/07 10:16:53;;;;;;;18.67;13.50;;;3.70;99.90;;;;;;5062691;28;20766;-43
2021/04/07 10:19:18;;;;;;;17.13;12.87;;;3.90;99.90;;;;;;5051585;28;20186;-44
2021/04/07 10:21:45;;;;;;;17.53;13.10;;;3.60;99.90;;;;;;5049464;28;20272;-41
2021/04/07 10:24:15;;;;;;;17.27;12.50;;;3.90;99.90;;;;;;5046083;28;20186;-41
2021/04/07 10:26:44;;;;;;;16.17;12.33;;;3.70;99.90;;;;;;5046182;28;20439;-41
2021/04/07 10:29:25;;;;;;;15.70;11.77;;;3.90;99.90;;;;;;5049106;28;20516;-43
2021/04/07 10:31:52;;;;;;;16.00;11.03;;;4.10;99.90;;;;;;5057155;28;20479;-41
2021/04/07 10:34:32;;;;;;;15.00;12.00;;;4.10;99.90;;;;;;5052423;28;20429;-42
2021/04/07 10:36:58;;;;;;;16.37;12.03;;;4.10;99.90;;;;;;5060727;28;20448;-42
2021/04/07 10:39:24;;;;;;;15.43;11.53;;;4.10;99.90;;;;;;5050516;28;20958;-41
2021/04/07 10:41:52;;;;;;;15.37;11.57;;;3.90;99.90;;;;;;5048311;28;20451;-42
2021/04/07 10:44:28;;;;;;;16.10;10.50;;;3.70;99.90;;;;;;5058742;28;20437;-41
2021/04/07 10:46:54;;;;;;;13.60;10.53;;;4.10;99.90;;;;;;5060562;28;20419;-41
2021/04/07 10:49:21;;;;;;;12.93;10.33;;;4.00;99.90;;;;;;5049348;28;20420;-47
2021/04/07 10:52:07;;;;;;;17.03;11.70;;;4.00;99.90;;;;;;5057861;28;20552;-43
2021/04/07 10:54:34;;;;;;;13.30;10.47;;;4.20;99.90;;;;;;5053952;28;20556;-40
2021/04/07 10:57:00;;;;;;;17.07;12.80;;;4.40;99.90;;;;;;5049656;28;20443;-41
2021/04/07 10:59:30;;;;;;;15.47;11.57;;;4.10;99.90;;;;;;5059373;28;20418;-40
2021/04/07 11:01:56;;;;;;;14.40;11.70;;;4.20;99.90;;;;;;5056695;28;20413;-42
2021/04/07 11:04:22;;;;;;;16.03;11.60;;;4.40;99.90;;;;;;5056719;28;20805;-40
2021/04/07 11:06:56;;;;;;;14.83;11.60;;;4.50;99.90;;;;;;5053812;28;20424;-41
2021/04/07 11:09:34;;;;;;;15.30;11.47;;;4.40;99.90;;;;;;5049148;28;20219;-44
2021/04/07 11:12:03;;;;;;;15.50;12.00;;;4.50;99.90;;;;;;5049551;28;20427;-41
2021/04/07 11:14:29;;;;;;;16.27;11.93;;;4.60;99.90;;;;;;5063096;28;20508;-40
2021/04/07 11:17:03;;;;;;;13.93;11.10;;;4.70;99.90;;;;;;5063318;28;20475;-41
2021/04/07 11:19:37;;;;;;;17.50;12.17;;;4.50;99.90;;;;;;5052504;28;20193;-40
2021/04/07 11:22:04;;;;;;;17.13;12.83;;;4.40;99.90;;;;;;5058033;28;20416;-45
2021/04/07 11:24:30;;;;;;;16.17;13.00;;;4.40;99.90;;;;;;5052165;28;20459;-44
2021/04/07 11:26:56;;;;;;;17.40;12.20;;;4.50;99.90;;;;;;5047816;28;21029;-41
2021/04/07 11:29:22;;;;;;;16.77;12.57;;;4.30;99.90;;;;;;5047763;28;20428;-49
2021/04/07 11:31:54;;;;;;;16.33;12.73;;;4.50;99.90;;;;;;5051358;28;20190;-44
2021/04/07 11:34:27;;;;;;;17.80;12.40;;;4.50;99.90;;;;;;5048465;28;20448;-44
2021/04/07 11:39:42;;;;;;;12.43;10.23;;;4.30;99.90;;;;;;5048006;28;20965;-41
2021/04/07 11:42:17;;;;;;;14.83;10.63;;;4.70;99.90;;;;;;5047127;28;20436;-41
2021/04/07 11:44:43;;;;;;;12.93;9.50;;;4.40;99.90;;;;;;5055950;28;20431;-42
2021/04/07 11:47:08;;;;;;;13.90;9.87;;;4.50;99.90;;;;;;5061651;28;20419;-41
2021/04/07 11:49:36;;;;;;;10.33;8.43;;;4.60;99.90;;;;;;5059403;28;20660;-41
2021/04/07 11:52:03;;;;;;;12.50;8.83;;;4.40;99.90;;;;;;5053144;28;20189;-40
2021/04/07 11:54:28;;;;;;;9.97;7.73;;;4.40;99.90;;;;;;5048972;28;20816;-44
2021/04/07 11:56:54;;;;;;;7.80;6.33;;;4.70;99.90;;;;;;5047142;28;20428;-40
2021/04/07 11:59:22;;;;;;;7.73;5.40;;;4.60;99.90;;;;;;5052007;28;20200;-41
2021/04/07 12:01:50;;;;;;;7.67;4.10;;;4.60;99.90;;;;;;5064711;28;20189;-40
2021/04/07 12:04:17;;;;;;;6.13;3.90;;;4.80;99.90;;;;;;5050186;28;20443;-44
2021/04/07 12:06:43;;;;;;;7.23;3.67;;;4.70;99.90;;;;;;5048596;28;20523;-43
2021/04/07 12:09:09;;;;;;;6.30;3.10;;;4.60;99.90;;;;;;5047992;28;20430;-43
2021/04/07 12:11:36;;;;;;;8.30;3.57;;;4.60;99.90;;;;;;5047727;28;20814;-45
2021/04/07 12:14:02;;;;;;;4.53;2.80;;;4.80;99.90;;;;;;5056210;28;20531;-44
2021/04/07 12:16:29;;;;;;;3.30;2.40;;;4.80;99.90;;;;;;5054303;28;20435;-42
2021/04/07 12:18:55;;;;;;;6.50;2.33;;;4.60;99.90;;;;;;5051478;28;20472;-42
2021/04/07 12:21:21;;;;;;;4.60;2.10;;;4.60;99.90;;;;;;5047907;28;20814;-48
2021/04/07 12:23:47;;;;;;;7.27;2.80;;;4.50;99.90;;;;;;5057598;28;20430;-43
2021/04/07 12:26:15;;;;;;;4.50;2.30;;;4.80;99.90;;;;;;5047591;28;20802;-41
2021/04/07 12:28:49;;;;;;;2.93;1.90;;;4.80;99.90;;;;;;5046126;28;20427;-42
2021/04/07 12:31:17;;;;;;;4.17;2.37;;;4.60;99.90;;;;;;5057980;28;20436;-40
2021/04/07 12:33:50;;;;;;;4.73;2.97;;;4.60;99.90;;;;;;5064369;28;20422;-44
2021/04/07 12:36:15;;;;;;;6.13;3.43;;;4.60;99.90;;;;;;5048303;28;20451;-41
2021/04/07 12:38:41;;;;;;;5.73;3.00;;;4.70;99.90;;;;;;5051413;28;20472;-41
2021/04/07 12:41:13;;;;;;;6.10;2.53;;;4.70;99.90;;;;;;5045350;28;20201;-41
2021/04/07 12:43:39;;;;;;;8.50;2.90;;;4.90;99.90;;;;;;5050382;28;20536;-42
2021/04/07 12:46:05;;;;;;;8.07;4.00;;;4.90;99.90;;;;;;5063038;28;20434;-40
2021/04/07 12:48:31;;;;;;;8.03;2.50;;;5.20;99.90;;;;;;5062794;28;20193;-40
2021/04/07 12:50:56;;;;;;;7.73;2.20;;;5.00;99.90;;;;;;5047084;28;20193;-40
2021/04/07 12:53:22;;;;;;;3.93;1.60;;;5.30;99.90;;;;;;5047239;28;20197;-41